Accueil
METAR-TAF:

METAR-TAF

Aéroports :

Aéroport d'Ajaccio-Napoléon-Bonaparte

Ajaccio, France

latitude: 41-55N, longitude: 008-48E, altitude: 6 m

Observation

Le bulletin a été fait il y a 37 minutes, à 05:00 UTC
Vent 5 kt de nord/nord-est
Température 18°C
Humidité 88%
Pression 1014 hPa
Visibilité 10 km ou plus
Nuages fragmentés à une hauteur de 3500 ft
Nuages fragmentés à une hauteur de 4300 ft
Nuages fragmentés à une hauteur de 5400 ft
pluie faible

METAR: LFKJ 200500Z AUTO 03005KT 9999 -RA BKN035 BKN043 BKN054 18/16 Q1014 NOSIG

Heure: 07:37 (05:37 UTC)

Prévision

Le bulletin a été fait il y a 3 heures et 37 minutes, à 02:00 UTC
Prévision valable du 20 à 03 UTC au 21 à 03 UTC
Vent 8 kt de ouest/nord-ouest
Visibilité 10 km ou plus
Nuages fragmentés à une hauteur de 4000 ft

TAF: LFKJ 200200Z 2003/2103 30008KT 9999 BKN040

Observations et prévisions météorologiques de plus de 4000 aéroports (messages METAR et TAF).

Les stations disponibles sont représentées par des disques jaunes et rouges sur la carte.

Passer la souris dessus pour voir le nom de la station.

Cliquer dessus pour voir les observations et prévisions météorologiques.

Pour changer de carte: cliquez sur les boutons verts avec une croix noire pour zoomer, sur le bouton vert avec un tiret pour effectuer un zoom arrière, ou sur les flèches vertes pour les cartes adjacentes.


METAR-TAF: